Weather at Tanjung Santan Airport

Public forecast

Using degrees Celsius for public forecast. Weather courtesy of forecast.io.

Closest aviation weather report (METAR) to Tanjung Santan Airport

Closest report is Sultan Aji Muhammad Sulaiman Sepinggan International Airport, 78.1 nm (144.7 km) SSW.

2024/06/22 12:00 (retrieved 39 minutes ago)

WALL 221200Z 23004KT 8000 FEW018CB SCT01828/26 Q1009 RMK CB TO NE

Closest aviation forecast (TAF) to Tanjung Santan Airport

Closest forecast is Aji Pangeran Tumenggung Pranoto International Airport, 20.8 nm (38.6 km) SW.

2024/06/22 12:00 (retrieved 39 minutes ago)

TAF WALS 221100Z 2212/2224 15002KT 9000 FEW020